sensor_id;sensor_type;location;lat;lon;timestamp;temperature;humidity
39099;DHT22;24844;52.380;7.018;2023-03-03T00:02:02;3.50;99.90
39099;DHT22;24844;52.380;7.018;2023-03-03T00:04:27;3.70;99.90
39099;DHT22;24844;52.380;7.018;2023-03-03T00:06:53;3.80;99.90
39099;DHT22;24844;52.380;7.018;2023-03-03T00:09:18;3.80;99.90
39099;DHT22;24844;52.380;7.018;2023-03-03T00:11:46;3.90;99.90
39099;DHT22;24844;52.380;7.018;2023-03-03T00:14:32;3.70;99.90
39099;DHT22;24844;52.380;7.018;2023-03-03T00:17:00;3.70;99.90
39099;DHT22;24844;52.380;7.018;2023-03-03T00:19:37;3.50;99.90
39099;DHT22;24844;52.380;7.018;2023-03-03T00:22:56;3.50;99.90
39099;DHT22;24844;52.380;7.018;2023-03-03T00:27:48;3.80;99.90
39099;DHT22;24844;52.380;7.018;2023-03-03T00:30:23;4.00;99.90
39099;DHT22;24844;52.380;7.018;2023-03-03T00:32:52;3.70;99.90
39099;DHT22;24844;52.380;7.018;2023-03-03T00:35:29;3.80;99.90
39099;DHT22;24844;52.380;7.018;2023-03-03T00:38:01;3.70;99.90
39099;DHT22;24844;52.380;7.018;2023-03-03T00:40:36;3.80;99.90
39099;DHT22;24844;52.380;7.018;2023-03-03T00:43:22;3.80;99.90
39099;DHT22;24844;52.380;7.018;2023-03-03T00:50:51;3.80;99.90
39099;DHT22;24844;52.380;7.018;2023-03-03T00:53:19;3.70;99.90
39099;DHT22;24844;52.380;7.018;2023-03-03T00:55:46;3.70;99.90
39099;DHT22;24844;52.380;7.018;2023-03-03T00:58:12;3.90;99.90
39099;DHT22;24844;52.380;7.018;2023-03-03T01:00:39;3.90;99.90
39099;DHT22;24844;52.380;7.018;2023-03-03T01:03:08;3.90;99.90
39099;DHT22;24844;52.380;7.018;2023-03-03T01:05:34;3.60;99.90
39099;DHT22;24844;52.380;7.018;2023-03-03T01:08:00;3.80;99.90
39099;DHT22;24844;52.380;7.018;2023-03-03T01:10:27;3.80;99.90
39099;DHT22;24844;52.380;7.018;2023-03-03T01:12:54;4.10;99.90
39099;DHT22;24844;52.380;7.018;2023-03-03T01:15:20;4.10;99.90
39099;DHT22;24844;52.380;7.018;2023-03-03T01:17:46;4.10;99.90
39099;DHT22;24844;52.380;7.018;2023-03-03T01:20:13;4.10;99.90
39099;DHT22;24844;52.380;7.018;2023-03-03T01:22:39;3.90;99.90
39099;DHT22;24844;52.380;7.018;2023-03-03T01:25:05;4.00;99.90
39099;DHT22;24844;52.380;7.018;2023-03-03T01:27:31;3.80;99.90
39099;DHT22;24844;52.380;7.018;2023-03-03T01:29:57;3.90;99.90
39099;DHT22;24844;52.380;7.018;2023-03-03T01:32:23;3.70;99.90
39099;DHT22;24844;52.380;7.018;2023-03-03T01:34:49;3.80;99.90
39099;DHT22;24844;52.380;7.018;2023-03-03T01:37:15;4.00;99.90
39099;DHT22;24844;52.380;7.018;2023-03-03T01:39:41;4.00;99.90
39099;DHT22;24844;52.380;7.018;2023-03-03T01:42:06;4.20;99.90
39099;DHT22;24844;52.380;7.018;2023-03-03T01:44:32;4.00;99.90
39099;DHT22;24844;52.380;7.018;2023-03-03T01:47:39;3.90;99.90
39099;DHT22;24844;52.380;7.018;2023-03-03T01:50:03;3.90;99.90
39099;DHT22;24844;52.380;7.018;2023-03-03T01:52:37;3.70;99.90
39099;DHT22;24844;52.380;7.018;2023-03-03T01:55:07;3.60;99.90
39099;DHT22;24844;52.380;7.018;2023-03-03T01:57:41;3.70;99.90
39099;DHT22;24844;52.380;7.018;2023-03-03T02:00:09;3.80;99.90
39099;DHT22;24844;52.380;7.018;2023-03-03T02:02:36;3.80;99.90
39099;DHT22;24844;52.380;7.018;2023-03-03T02:05:02;3.90;99.90
39099;DHT22;24844;52.380;7.018;2023-03-03T02:07:29;3.70;99.90
39099;DHT22;24844;52.380;7.018;2023-03-03T02:10:16;3.60;99.90
39099;DHT22;24844;52.380;7.018;2023-03-03T02:15:21;3.90;99.90
39099;DHT22;24844;52.380;7.018;2023-03-03T02:17:49;3.80;99.90
39099;DHT22;24844;52.380;7.018;2023-03-03T02:23:25;4.10;99.90
39099;DHT22;24844;52.380;7.018;2023-03-03T02:28:23;3.70;99.90
39099;DHT22;24844;52.380;7.018;2023-03-03T02:30:53;4.00;99.90
39099;DHT22;24844;52.380;7.018;2023-03-03T02:33:18;4.10;99.90
39099;DHT22;24844;52.380;7.018;2023-03-03T02:35:44;4.20;99.90
39099;DHT22;24844;52.380;7.018;2023-03-03T02:38:25;4.10;99.90
39099;DHT22;24844;52.380;7.018;2023-03-03T02:41:28;3.80;99.90
39099;DHT22;24844;52.380;7.018;2023-03-03T02:46:22;4.00;99.90
39099;DHT22;24844;52.380;7.018;2023-03-03T02:48:47;4.20;99.90
39099;DHT22;24844;52.380;7.018;2023-03-03T02:51:13;4.10;99.90
39099;DHT22;24844;52.380;7.018;2023-03-03T02:53:39;3.90;99.90
39099;DHT22;24844;52.380;7.018;2023-03-03T02:56:05;4.00;99.90
39099;DHT22;24844;52.380;7.018;2023-03-03T02:58:31;4.00;99.90
39099;DHT22;24844;52.380;7.018;2023-03-03T03:00:57;4.00;99.90
39099;DHT22;24844;52.380;7.018;2023-03-03T03:03:23;3.80;99.90
39099;DHT22;24844;52.380;7.018;2023-03-03T03:05:48;3.90;99.90
39099;DHT22;24844;52.380;7.018;2023-03-03T03:08:14;3.90;99.90
39099;DHT22;24844;52.380;7.018;2023-03-03T03:10:39;3.90;99.90
39099;DHT22;24844;52.380;7.018;2023-03-03T03:13:05;3.80;99.90
39099;DHT22;24844;52.380;7.018;2023-03-03T03:15:30;3.80;99.90
39099;DHT22;24844;52.380;7.018;2023-03-03T03:17:56;3.90;99.90
39099;DHT22;24844;52.380;7.018;2023-03-03T03:20:22;3.90;99.90
39099;DHT22;24844;52.380;7.018;2023-03-03T03:22:47;4.20;99.90
39099;DHT22;24844;52.380;7.018;2023-03-03T03:25:14;4.10;99.90
39099;DHT22;24844;52.380;7.018;2023-03-03T03:27:39;3.90;99.90
39099;DHT22;24844;52.380;7.018;2023-03-03T03:30:05;4.10;99.90
39099;DHT22;24844;52.380;7.018;2023-03-03T03:32:31;4.10;99.90
39099;DHT22;24844;52.380;7.018;2023-03-03T03:34:57;4.00;99.90
39099;DHT22;24844;52.380;7.018;2023-03-03T03:37:22;4.00;99.90
39099;DHT22;24844;52.380;7.018;2023-03-03T03:39:48;4.10;99.90
39099;DHT22;24844;52.380;7.018;2023-03-03T03:42:13;4.00;99.90
39099;DHT22;24844;52.380;7.018;2023-03-03T03:44:39;4.00;99.90
39099;DHT22;24844;52.380;7.018;2023-03-03T03:47:04;4.10;99.90
39099;DHT22;24844;52.380;7.018;2023-03-03T03:49:30;3.80;99.90
39099;DHT22;24844;52.380;7.018;2023-03-03T03:51:55;3.90;99.90
39099;DHT22;24844;52.380;7.018;2023-03-03T03:54:21;4.00;99.90
39099;DHT22;24844;52.380;7.018;2023-03-03T03:56:47;4.10;99.90
39099;DHT22;24844;52.380;7.018;2023-03-03T03:59:12;4.00;99.90
39099;DHT22;24844;52.380;7.018;2023-03-03T04:01:38;4.00;99.90
39099;DHT22;24844;52.380;7.018;2023-03-03T04:04:04;3.90;99.90
39099;DHT22;24844;52.380;7.018;2023-03-03T04:06:30;3.80;99.90
39099;DHT22;24844;52.380;7.018;2023-03-03T04:08:55;3.70;99.90
39099;DHT22;24844;52.380;7.018;2023-03-03T04:11:21;3.80;99.90
39099;DHT22;24844;52.380;7.018;2023-03-03T04:13:47;3.80;99.90
39099;DHT22;24844;52.380;7.018;2023-03-03T04:16:13;3.80;99.90
39099;DHT22;24844;52.380;7.018;2023-03-03T04:18:38;4.00;99.90
39099;DHT22;24844;52.380;7.018;2023-03-03T04:21:04;3.90;99.90
39099;DHT22;24844;52.380;7.018;2023-03-03T04:23:30;3.90;99.90
39099;DHT22;24844;52.380;7.018;2023-03-03T04:25:55;3.90;99.90
39099;DHT22;24844;52.380;7.018;2023-03-03T04:28:21;4.10;99.90
39099;DHT22;24844;52.380;7.018;2023-03-03T04:30:49;4.00;99.90
39099;DHT22;24844;52.380;7.018;2023-03-03T04:33:15;4.00;99.90
39099;DHT22;24844;52.380;7.018;2023-03-03T04:35:40;3.90;99.90
39099;DHT22;24844;52.380;7.018;2023-03-03T04:38:06;3.70;99.90
39099;DHT22;24844;52.380;7.018;2023-03-03T04:40:31;3.70;99.90
39099;DHT22;24844;52.380;7.018;2023-03-03T04:42:57;3.80;99.90
39099;DHT22;24844;52.380;7.018;2023-03-03T04:45:22;3.60;99.90
39099;DHT22;24844;52.380;7.018;2023-03-03T04:47:48;3.80;99.90
39099;DHT22;24844;52.380;7.018;2023-03-03T04:50:13;4.00;99.90
39099;DHT22;24844;52.380;7.018;2023-03-03T04:52:39;4.10;99.90
39099;DHT22;24844;52.380;7.018;2023-03-03T04:55:05;3.80;99.90
39099;DHT22;24844;52.380;7.018;2023-03-03T04:57:31;3.80;99.90
39099;DHT22;24844;52.380;7.018;2023-03-03T04:59:56;3.80;99.90
39099;DHT22;24844;52.380;7.018;2023-03-03T05:02:22;3.90;99.90
39099;DHT22;24844;52.380;7.018;2023-03-03T05:04:47;3.90;99.90
39099;DHT22;24844;52.380;7.018;2023-03-03T05:07:13;4.00;99.90
39099;DHT22;24844;52.380;7.018;2023-03-03T05:09:39;3.90;99.90
39099;DHT22;24844;52.380;7.018;2023-03-03T05:12:04;4.00;99.90
39099;DHT22;24844;52.380;7.018;2023-03-03T05:14:30;4.10;99.90
39099;DHT22;24844;52.380;7.018;2023-03-03T05:16:56;4.20;99.90
39099;DHT22;24844;52.380;7.018;2023-03-03T05:19:22;3.90;99.90
39099;DHT22;24844;52.380;7.018;2023-03-03T05:21:48;3.80;99.90
39099;DHT22;24844;52.380;7.018;2023-03-03T05:24:14;3.90;99.90
39099;DHT22;24844;52.380;7.018;2023-03-03T05:26:40;3.90;99.90
39099;DHT22;24844;52.380;7.018;2023-03-03T05:29:06;3.70;99.90
39099;DHT22;24844;52.380;7.018;2023-03-03T05:31:32;3.70;99.90
39099;DHT22;24844;52.380;7.018;2023-03-03T05:33:58;4.10;99.90
39099;DHT22;24844;52.380;7.018;2023-03-03T05:36:23;4.20;99.90
39099;DHT22;24844;52.380;7.018;2023-03-03T05:38:49;4.10;99.90
39099;DHT22;24844;52.380;7.018;2023-03-03T05:41:14;3.80;99.90
39099;DHT22;24844;52.380;7.018;2023-03-03T05:43:40;3.90;99.90
39099;DHT22;24844;52.380;7.018;2023-03-03T05:46:06;3.70;99.90
39099;DHT22;24844;52.380;7.018;2023-03-03T05:48:31;3.70;99.90
39099;DHT22;24844;52.380;7.018;2023-03-03T05:50:57;3.60;99.90
39099;DHT22;24844;52.380;7.018;2023-03-03T05:53:24;3.60;99.90
39099;DHT22;24844;52.380;7.018;2023-03-03T05:55:50;3.90;99.90
39099;DHT22;24844;52.380;7.018;2023-03-03T05:58:15;3.80;99.90
39099;DHT22;24844;52.380;7.018;2023-03-03T06:00:41;3.70;99.90
39099;DHT22;24844;52.380;7.018;2023-03-03T06:03:06;3.90;99.90
39099;DHT22;24844;52.380;7.018;2023-03-03T06:05:32;4.00;99.90
39099;DHT22;24844;52.380;7.018;2023-03-03T06:07:58;3.90;99.90
39099;DHT22;24844;52.380;7.018;2023-03-03T06:10:24;3.80;99.90
39099;DHT22;24844;52.380;7.018;2023-03-03T06:12:49;3.90;99.90
39099;DHT22;24844;52.380;7.018;2023-03-03T06:15:16;4.00;99.90
39099;DHT22;24844;52.380;7.018;2023-03-03T06:17:41;3.70;99.90
39099;DHT22;24844;52.380;7.018;2023-03-03T06:20:07;3.80;99.90
39099;DHT22;24844;52.380;7.018;2023-03-03T06:22:33;3.90;99.90
39099;DHT22;24844;52.380;7.018;2023-03-03T06:24:59;4.00;99.90
39099;DHT22;24844;52.380;7.018;2023-03-03T06:27:24;4.20;99.90
39099;DHT22;24844;52.380;7.018;2023-03-03T06:29:50;4.30;99.90
39099;DHT22;24844;52.380;7.018;2023-03-03T06:32:15;4.10;99.90
39099;DHT22;24844;52.380;7.018;2023-03-03T06:34:41;4.10;99.90
39099;DHT22;24844;52.380;7.018;2023-03-03T06:37:07;4.20;99.90
39099;DHT22;24844;52.380;7.018;2023-03-03T06:39:32;4.30;99.90
39099;DHT22;24844;52.380;7.018;2023-03-03T06:41:58;4.40;99.90
39099;DHT22;24844;52.380;7.018;2023-03-03T06:44:23;4.70;99.90
39099;DHT22;24844;52.380;7.018;2023-03-03T06:46:49;4.30;99.90
39099;DHT22;24844;52.380;7.018;2023-03-03T06:49:15;4.40;99.90
39099;DHT22;24844;52.380;7.018;2023-03-03T06:51:40;4.40;99.90
39099;DHT22;24844;52.380;7.018;2023-03-03T06:54:15;4.30;99.90
39099;DHT22;24844;52.380;7.018;2023-03-03T06:56:42;4.30;99.90
39099;DHT22;24844;52.380;7.018;2023-03-03T06:59:17;4.20;99.90
39099;DHT22;24844;52.380;7.018;2023-03-03T07:01:43;4.60;99.90
39099;DHT22;24844;52.380;7.018;2023-03-03T07:06:40;4.60;99.90
39099;DHT22;24844;52.380;7.018;2023-03-03T07:09:21;4.40;99.90
39099;DHT22;24844;52.380;7.018;2023-03-03T07:11:48;4.40;99.90
39099;DHT22;24844;52.380;7.018;2023-03-03T07:14:17;4.60;99.90
39099;DHT22;24844;52.380;7.018;2023-03-03T07:16:43;4.60;99.90
39099;DHT22;24844;52.380;7.018;2023-03-03T07:19:18;4.60;99.90
39099;DHT22;24844;52.380;7.018;2023-03-03T07:21:45;4.40;99.90
39099;DHT22;24844;52.380;7.018;2023-03-03T07:24:28;4.60;99.90
39099;DHT22;24844;52.380;7.018;2023-03-03T07:27:08;4.70;99.90
39099;DHT22;24844;52.380;7.018;2023-03-03T07:29:36;4.40;99.90
39099;DHT22;24844;52.380;7.018;2023-03-03T07:32:23;4.40;99.90
39099;DHT22;24844;52.380;7.018;2023-03-03T07:34:51;4.50;99.90
39099;DHT22;24844;52.380;7.018;2023-03-03T07:37:36;4.60;99.90
39099;DHT22;24844;52.380;7.018;2023-03-03T07:42:49;4.50;99.90
39099;DHT22;24844;52.380;7.018;2023-03-03T07:45:26;4.50;99.90
39099;DHT22;24844;52.380;7.018;2023-03-03T07:50:43;4.20;99.90
39099;DHT22;24844;52.380;7.018;2023-03-03T07:53:25;4.30;99.90
39099;DHT22;24844;52.380;7.018;2023-03-03T07:55:51;4.60;99.90
39099;DHT22;24844;52.380;7.018;2023-03-03T07:58:42;4.80;99.90
39099;DHT22;24844;52.380;7.018;2023-03-03T08:01:33;5.00;99.90
39099;DHT22;24844;52.380;7.018;2023-03-03T08:04:00;4.80;99.90
39099;DHT22;24844;52.380;7.018;2023-03-03T08:06:41;4.90;99.90
39099;DHT22;24844;52.380;7.018;2023-03-03T08:11:34;4.90;99.90
39099;DHT22;24844;52.380;7.018;2023-03-03T08:14:00;4.90;99.90
39099;DHT22;24844;52.380;7.018;2023-03-03T08:16:38;5.10;99.90
39099;DHT22;24844;52.380;7.018;2023-03-03T08:19:05;5.20;99.90
39099;DHT22;24844;52.380;7.018;2023-03-03T08:21:32;5.30;99.90
39099;DHT22;24844;52.380;7.018;2023-03-03T08:23:59;5.20;99.90
39099;DHT22;24844;52.380;7.018;2023-03-03T08:26:25;4.90;99.90
39099;DHT22;24844;52.380;7.018;2023-03-03T08:28:52;5.10;99.90
39099;DHT22;24844;52.380;7.018;2023-03-03T08:31:18;5.20;99.90
39099;DHT22;24844;52.380;7.018;2023-03-03T08:33:44;5.10;99.90
39099;DHT22;24844;52.380;7.018;2023-03-03T08:36:11;5.30;99.90
39099;DHT22;24844;52.380;7.018;2023-03-03T08:38:36;5.20;99.90
39099;DHT22;24844;52.380;7.018;2023-03-03T08:41:03;5.30;99.90
39099;DHT22;24844;52.380;7.018;2023-03-03T08:43:29;5.40;99.90
39099;DHT22;24844;52.380;7.018;2023-03-03T08:45:58;5.50;99.90
39099;DHT22;24844;52.380;7.018;2023-03-03T08:48:24;5.20;99.90
39099;DHT22;24844;52.380;7.018;2023-03-03T08:50:51;5.40;99.90
39099;DHT22;24844;52.380;7.018;2023-03-03T08:53:18;5.70;99.90
39099;DHT22;24844;52.380;7.018;2023-03-03T08:55:43;6.00;99.90
39099;DHT22;24844;52.380;7.018;2023-03-03T08:58:09;6.30;99.90
39099;DHT22;24844;52.380;7.018;2023-03-03T09:00:35;6.30;99.90
39099;DHT22;24844;52.380;7.018;2023-03-03T09:03:01;6.30;99.90
39099;DHT22;24844;52.380;7.018;2023-03-03T09:05:27;6.10;99.90
39099;DHT22;24844;52.380;7.018;2023-03-03T09:07:53;6.40;99.90
39099;DHT22;24844;52.380;7.018;2023-03-03T09:10:23;6.80;99.90
39099;DHT22;24844;52.380;7.018;2023-03-03T09:12:53;6.70;99.90
39099;DHT22;24844;52.380;7.018;2023-03-03T09:15:29;6.80;99.90
39099;DHT22;24844;52.380;7.018;2023-03-03T09:17:58;7.00;99.90
39099;DHT22;24844;52.380;7.018;2023-03-03T09:20:30;7.10;99.90
39099;DHT22;24844;52.380;7.018;2023-03-03T09:25:49;7.40;99.90
39099;DHT22;24844;52.380;7.018;2023-03-03T09:28:33;7.30;99.90
39099;DHT22;24844;52.380;7.018;2023-03-03T09:31:01;7.10;99.90
39099;DHT22;24844;52.380;7.018;2023-03-03T09:33:28;7.00;99.90
39099;DHT22;24844;52.380;7.018;2023-03-03T09:36:25;7.30;99.90
39099;DHT22;24844;52.380;7.018;2023-03-03T09:38:52;7.80;99.90
39099;DHT22;24844;52.380;7.018;2023-03-03T09:50:25;8.70;99.90
39099;DHT22;24844;52.380;7.018;2023-03-03T09:55:36;8.30;99.90
39099;DHT22;24844;52.380;7.018;2023-03-03T10:04:03;10.00;99.90
39099;DHT22;24844;52.380;7.018;2023-03-03T10:06:54;9.20;99.90
39099;DHT22;24844;52.380;7.018;2023-03-03T10:17:47;9.70;99.90
39099;DHT22;24844;52.380;7.018;2023-03-03T10:20:37;8.80;99.90
39099;DHT22;24844;52.380;7.018;2023-03-03T10:23:44;9.40;99.90
39099;DHT22;24844;52.380;7.018;2023-03-03T10:29:06;8.90;99.90
39099;DHT22;24844;52.380;7.018;2023-03-03T10:35:07;9.70;99.90
39099;DHT22;24844;52.380;7.018;2023-03-03T10:44:54;10.80;97.40
39099;DHT22;24844;52.380;7.018;2023-03-03T10:47:33;11.20;94.60
39099;DHT22;24844;52.380;7.018;2023-03-03T10:58:27;14.10;83.30
39099;DHT22;24844;52.380;7.018;2023-03-03T11:01:07;15.00;78.50
39099;DHT22;24844;52.380;7.018;2023-03-03T11:06:24;15.60;70.90
39099;DHT22;24844;52.380;7.018;2023-03-03T11:09:30;16.90;65.10
39099;DHT22;24844;52.380;7.018;2023-03-03T11:15:04;17.80;63.30
39099;DHT22;24844;52.380;7.018;2023-03-03T11:22:53;19.50;58.70
39099;DHT22;24844;52.380;7.018;2023-03-03T11:25:45;20.20;56.10
39099;DHT22;24844;52.380;7.018;2023-03-03T11:31:18;21.00;53.90
39099;DHT22;24844;52.380;7.018;2023-03-03T11:34:10;21.50;49.80
39099;DHT22;24844;52.380;7.018;2023-03-03T11:39:16;17.60;53.00
39099;DHT22;24844;52.380;7.018;2023-03-03T11:42:10;17.00;54.70
39099;DHT22;24844;52.380;7.018;2023-03-03T11:44:51;15.80;57.00
39099;DHT22;24844;52.380;7.018;2023-03-03T11:47:33;14.10;60.20
39099;DHT22;24844;52.380;7.018;2023-03-03T11:50:35;13.50;61.50
39099;DHT22;24844;52.380;7.018;2023-03-03T11:53:44;12.80;63.70
39099;DHT22;24844;52.380;7.018;2023-03-03T11:56:21;11.70;65.80
39099;DHT22;24844;52.380;7.018;2023-03-03T11:58:59;11.70;67.50
39099;DHT22;24844;52.380;7.018;2023-03-03T12:01:29;11.10;70.50
39099;DHT22;24844;52.380;7.018;2023-03-03T12:04:02;10.90;73.50
39099;DHT22;24844;52.380;7.018;2023-03-03T12:06:39;11.10;71.10
39099;DHT22;24844;52.380;7.018;2023-03-03T12:12:13;10.80;76.20
39099;DHT22;24844;52.380;7.018;2023-03-03T12:14:58;10.70;79.30
39099;DHT22;24844;52.380;7.018;2023-03-03T12:25:41;10.80;77.20
39099;DHT22;24844;52.380;7.018;2023-03-03T12:28:18;10.90;76.80
39099;DHT22;24844;52.380;7.018;2023-03-03T12:33:54;10.80;77.70
39099;DHT22;24844;52.380;7.018;2023-03-03T12:42:29;10.00;87.60
39099;DHT22;24844;52.380;7.018;2023-03-03T12:45:08;10.20;90.20
39099;DHT22;24844;52.380;7.018;2023-03-03T12:56:02;10.60;88.60
39099;DHT22;24844;52.380;7.018;2023-03-03T12:58:46;10.60;89.90
39099;DHT22;24844;52.380;7.018;2023-03-03T13:04:02;10.40;87.70
39099;DHT22;24844;52.380;7.018;2023-03-03T13:06:46;10.60;86.00
39099;DHT22;24844;52.380;7.018;2023-03-03T13:11:55;10.10;87.40
39099;DHT22;24844;52.380;7.018;2023-03-03T13:17:26;9.90;91.30
39099;DHT22;24844;52.380;7.018;2023-03-03T13:19:59;10.10;91.50
39099;DHT22;24844;52.380;7.018;2023-03-03T13:27:43;9.70;91.80
39099;DHT22;24844;52.380;7.018;2023-03-03T13:30:19;9.70;92.80
39099;DHT22;24844;52.380;7.018;2023-03-03T13:32:52;9.70;92.20
39099;DHT22;24844;52.380;7.018;2023-03-03T13:35:44;9.80;92.30
39099;DHT22;24844;52.380;7.018;2023-03-03T13:38:16;10.10;92.00
39099;DHT22;24844;52.380;7.018;2023-03-03T13:40:50;10.00;92.30
39099;DHT22;24844;52.380;7.018;2023-03-03T13:43:29;10.10;91.30
39099;DHT22;24844;52.380;7.018;2023-03-03T13:54:20;9.70;92.60
39099;DHT22;24844;52.380;7.018;2023-03-03T14:00:12;9.40;94.10
39099;DHT22;24844;52.380;7.018;2023-03-03T14:05:15;9.50;96.00
39099;DHT22;24844;52.380;7.018;2023-03-03T14:07:51;9.40;97.60
39099;DHT22;24844;52.380;7.018;2023-03-03T14:15:25;9.20;99.90
39099;DHT22;24844;52.380;7.018;2023-03-03T14:18:07;9.20;99.90
39099;DHT22;24844;52.380;7.018;2023-03-03T14:20:40;9.20;99.90
39099;DHT22;24844;52.380;7.018;2023-03-03T14:24:02;9.40;99.90
39099;DHT22;24844;52.380;7.018;2023-03-03T14:26:07;9.50;99.90
39099;DHT22;24844;52.380;7.018;2023-03-03T14:28:41;9.50;99.90
39099;DHT22;24844;52.380;7.018;2023-03-03T14:31:23;9.70;99.70
39099;DHT22;24844;52.380;7.018;2023-03-03T14:36:49;9.60;99.90
39099;DHT22;24844;52.380;7.018;2023-03-03T14:39:38;9.50;99.90
39099;DHT22;24844;52.380;7.018;2023-03-03T14:44:59;9.40;99.90
39099;DHT22;24844;52.380;7.018;2023-03-03T14:47:28;9.30;99.90
39099;DHT22;24844;52.380;7.018;2023-03-03T14:49:57;9.30;99.90
39099;DHT22;24844;52.380;7.018;2023-03-03T14:52:29;9.40;99.90
39099;DHT22;24844;52.380;7.018;2023-03-03T14:54:57;9.20;99.90
39099;DHT22;24844;52.380;7.018;2023-03-03T14:57:38;9.20;99.90
39099;DHT22;24844;52.380;7.018;2023-03-03T15:02:42;9.20;99.90
39099;DHT22;24844;52.380;7.018;2023-03-03T15:05:26;9.50;99.90
39099;DHT22;24844;52.380;7.018;2023-03-03T15:07:54;9.70;99.90
39099;DHT22;24844;52.380;7.018;2023-03-03T15:10:30;9.60;99.90
39099;DHT22;24844;52.380;7.018;2023-03-03T15:12:57;9.80;99.90
39099;DHT22;24844;52.380;7.018;2023-03-03T15:15:25;9.60;99.30
39099;DHT22;24844;52.380;7.018;2023-03-03T15:17:55;9.30;99.40
39099;DHT22;24844;52.380;7.018;2023-03-03T15:28:32;9.70;96.20
39099;DHT22;24844;52.380;7.018;2023-03-03T15:31:06;9.50;97.40
39099;DHT22;24844;52.380;7.018;2023-03-03T15:34:20;9.50;97.80
39099;DHT22;24844;52.380;7.018;2023-03-03T15:39:48;9.80;97.70
39099;DHT22;24844;52.380;7.018;2023-03-03T15:42:46;9.80;97.40
39099;DHT22;24844;52.380;7.018;2023-03-03T15:45:32;9.80;96.70
39099;DHT22;24844;52.380;7.018;2023-03-03T15:50:34;9.70;97.50
39099;DHT22;24844;52.380;7.018;2023-03-03T15:55:51;9.80;96.90
39099;DHT22;24844;52.380;7.018;2023-03-03T16:03:48;10.00;96.50
39099;DHT22;24844;52.380;7.018;2023-03-03T16:12:03;9.90;96.70
39099;DHT22;24844;52.380;7.018;2023-03-03T16:17:40;9.40;97.00
39099;DHT22;24844;52.380;7.018;2023-03-03T16:20:17;9.60;97.30
39099;DHT22;24844;52.380;7.018;2023-03-03T16:25:42;9.50;99.30
39099;DHT22;24844;52.380;7.018;2023-03-03T16:28:22;9.50;99.20
39099;DHT22;24844;52.380;7.018;2023-03-03T16:30:57;9.40;99.90
39099;DHT22;24844;52.380;7.018;2023-03-03T16:33:43;9.20;99.90
39099;DHT22;24844;52.380;7.018;2023-03-03T16:42:24;9.10;99.90
39099;DHT22;24844;52.380;7.018;2023-03-03T16:53:00;8.80;99.90
39099;DHT22;24844;52.380;7.018;2023-03-03T16:55:34;9.00;99.90
39099;DHT22;24844;52.380;7.018;2023-03-03T16:58:40;9.10;99.90
39099;DHT22;24844;52.380;7.018;2023-03-03T17:06:57;9.10;99.90
39099;DHT22;24844;52.380;7.018;2023-03-03T17:15:06;8.60;99.90
39099;DHT22;24844;52.380;7.018;2023-03-03T17:20:28;8.70;99.90
39099;DHT22;24844;52.380;7.018;2023-03-03T17:29:12;8.90;99.90
39099;DHT22;24844;52.380;7.018;2023-03-03T17:32:12;9.00;99.90
39099;DHT22;24844;52.380;7.018;2023-03-03T17:34:49;8.90;99.90
39099;DHT22;24844;52.380;7.018;2023-03-03T17:37:38;8.80;99.90
39099;DHT22;24844;52.380;7.018;2023-03-03T17:43:17;8.80;99.90
39099;DHT22;24844;52.380;7.018;2023-03-03T17:45:46;8.80;99.90
39099;DHT22;24844;52.380;7.018;2023-03-03T17:48:38;8.70;99.90
39099;DHT22;24844;52.380;7.018;2023-03-03T17:56:17;8.40;99.90
39099;DHT22;24844;52.380;7.018;2023-03-03T18:16:06;8.20;99.90
39099;DHT22;24844;52.380;7.018;2023-03-03T18:21:21;8.20;99.90
39099;DHT22;24844;52.380;7.018;2023-03-03T18:23:48;8.20;99.90
39099;DHT22;24844;52.380;7.018;2023-03-03T18:26:34;8.20;99.90
39099;DHT22;24844;52.380;7.018;2023-03-03T18:34:38;8.10;99.90
39099;DHT22;24844;52.380;7.018;2023-03-03T18:42:39;7.90;99.90
39099;DHT22;24844;52.380;7.018;2023-03-03T18:45:48;7.80;99.90
39099;DHT22;24844;52.380;7.018;2023-03-03T18:48:07;7.90;99.90
39099;DHT22;24844;52.380;7.018;2023-03-03T18:50:39;8.00;99.90
39099;DHT22;24844;52.380;7.018;2023-03-03T18:53:27;7.90;99.90
39099;DHT22;24844;52.380;7.018;2023-03-03T18:55:58;7.90;99.90
39099;DHT22;24844;52.380;7.018;2023-03-03T19:00:54;7.90;99.90
39099;DHT22;24844;52.380;7.018;2023-03-03T19:05:51;7.70;99.90
39099;DHT22;24844;52.380;7.018;2023-03-03T19:11:01;7.80;99.90
39099;DHT22;24844;52.380;7.018;2023-03-03T19:16:10;7.70;99.90
39099;DHT22;24844;52.380;7.018;2023-03-03T19:21:20;7.60;99.90
39099;DHT22;24844;52.380;7.018;2023-03-03T19:29:36;7.60;99.90
39099;DHT22;24844;52.380;7.018;2023-03-03T19:35:29;7.60;99.90
39099;DHT22;24844;52.380;7.018;2023-03-03T19:51:43;7.80;99.90
39099;DHT22;24844;52.380;7.018;2023-03-03T19:56:52;7.70;99.90
39099;DHT22;24844;52.380;7.018;2023-03-03T19:59:43;7.80;99.90
39099;DHT22;24844;52.380;7.018;2023-03-03T20:02:47;7.80;99.90
39099;DHT22;24844;52.380;7.018;2023-03-03T20:05:34;7.90;99.90
39099;DHT22;24844;52.380;7.018;2023-03-03T20:10:59;7.80;99.90
39099;DHT22;24844;52.380;7.018;2023-03-03T20:13:58;7.90;99.90
39099;DHT22;24844;52.380;7.018;2023-03-03T20:19:23;7.80;99.90
39099;DHT22;24844;52.380;7.018;2023-03-03T20:24:52;7.80;99.90
39099;DHT22;24844;52.380;7.018;2023-03-03T20:52:39;7.70;99.90
39099;DHT22;24844;52.380;7.018;2023-03-03T20:55:35;7.60;99.90
39099;DHT22;24844;52.380;7.018;2023-03-03T21:01:09;7.60;99.90
39099;DHT22;24844;52.380;7.018;2023-03-03T21:03:38;7.60;99.90
39099;DHT22;24844;52.380;7.018;2023-03-03T21:06:09;7.60;99.90
39099;DHT22;24844;52.380;7.018;2023-03-03T21:08:50;7.70;99.90
39099;DHT22;24844;52.380;7.018;2023-03-03T21:13:59;7.60;99.90
39099;DHT22;24844;52.380;7.018;2023-03-03T21:16:36;7.70;99.90
39099;DHT22;24844;52.380;7.018;2023-03-03T21:19:02;7.70;99.90
39099;DHT22;24844;52.380;7.018;2023-03-03T21:21:31;7.80;99.90
39099;DHT22;24844;52.380;7.018;2023-03-03T21:23:57;7.80;99.90
39099;DHT22;24844;52.380;7.018;2023-03-03T21:26:58;7.80;99.90
39099;DHT22;24844;52.380;7.018;2023-03-03T21:31:54;7.50;99.90
39099;DHT22;24844;52.380;7.018;2023-03-03T21:34:40;7.60;99.90
39099;DHT22;24844;52.380;7.018;2023-03-03T21:37:11;7.50;99.90
39099;DHT22;24844;52.380;7.018;2023-03-03T21:39:42;7.30;99.90
39099;DHT22;24844;52.380;7.018;2023-03-03T21:42:13;7.20;99.90
39099;DHT22;24844;52.380;7.018;2023-03-03T21:44:51;7.30;99.90
39099;DHT22;24844;52.380;7.018;2023-03-03T21:47:19;7.30;99.90
39099;DHT22;24844;52.380;7.018;2023-03-03T21:49:47;7.40;99.90
39099;DHT22;24844;52.380;7.018;2023-03-03T21:52:15;7.40;99.90
39099;DHT22;24844;52.380;7.018;2023-03-03T21:54:42;7.50;99.90
39099;DHT22;24844;52.380;7.018;2023-03-03T21:57:08;7.50;99.90
39099;DHT22;24844;52.380;7.018;2023-03-03T21:59:34;7.70;99.90
39099;DHT22;24844;52.380;7.018;2023-03-03T22:01:59;7.70;99.90
39099;DHT22;24844;52.380;7.018;2023-03-03T22:04:25;7.60;99.90
39099;DHT22;24844;52.380;7.018;2023-03-03T22:06:51;7.50;99.90
39099;DHT22;24844;52.380;7.018;2023-03-03T22:09:22;7.40;99.90